sensor_id;sensor_type;location;lat;lon;timestamp;P1;durP1;ratioP1;P2;durP2;ratioP2
59756;SDS011;45631;51.962;5.974;2023-04-25T00:02:13;10.13;;;3.30;;
59756;SDS011;45631;51.962;5.974;2023-04-25T00:04:41;13.77;;;3.33;;
59756;SDS011;45631;51.962;5.974;2023-04-25T00:07:11;11.25;;;2.90;;
59756;SDS011;45631;51.962;5.974;2023-04-25T00:09:40;10.43;;;2.47;;
59756;SDS011;45631;51.962;5.974;2023-04-25T00:12:08;11.20;;;2.78;;
59756;SDS011;45631;51.962;5.974;2023-04-25T00:14:36;12.10;;;2.85;;
59756;SDS011;45631;51.962;5.974;2023-04-25T00:17:04;15.80;;;3.80;;
59756;SDS011;45631;51.962;5.974;2023-04-25T00:19:32;13.05;;;3.00;;
59756;SDS011;45631;51.962;5.974;2023-04-25T00:22:01;11.13;;;2.75;;
59756;SDS011;45631;51.962;5.974;2023-04-25T00:24:30;13.13;;;2.92;;
59756;SDS011;45631;51.962;5.974;2023-04-25T00:26:59;14.02;;;3.55;;
59756;SDS011;45631;51.962;5.974;2023-04-25T00:29:27;16.25;;;3.05;;
59756;SDS011;45631;51.962;5.974;2023-04-25T00:31:55;13.60;;;3.13;;
59756;SDS011;45631;51.962;5.974;2023-04-25T00:34:23;13.65;;;3.33;;
59756;SDS011;45631;51.962;5.974;2023-04-25T00:36:51;13.88;;;3.10;;
59756;SDS011;45631;51.962;5.974;2023-04-25T00:39:19;10.07;;;3.28;;
59756;SDS011;45631;51.962;5.974;2023-04-25T00:41:49;17.35;;;3.47;;
59756;SDS011;45631;51.962;5.974;2023-04-25T00:44:19;13.85;;;3.20;;
59756;SDS011;45631;51.962;5.974;2023-04-25T00:46:48;10.75;;;3.22;;
59756;SDS011;45631;51.962;5.974;2023-04-25T00:49:16;11.30;;;4.13;;
59756;SDS011;45631;51.962;5.974;2023-04-25T00:51:44;9.35;;;3.13;;
59756;SDS011;45631;51.962;5.974;2023-04-25T00:54:13;11.93;;;3.13;;
59756;SDS011;45631;51.962;5.974;2023-04-25T00:56:41;13.07;;;2.90;;
59756;SDS011;45631;51.962;5.974;2023-04-25T00:59:13;12.57;;;3.20;;
59756;SDS011;45631;51.962;5.974;2023-04-25T01:01:41;15.75;;;3.75;;
59756;SDS011;45631;51.962;5.974;2023-04-25T01:04:10;13.25;;;3.33;;
59756;SDS011;45631;51.962;5.974;2023-04-25T01:06:39;11.98;;;3.33;;
59756;SDS011;45631;51.962;5.974;2023-04-25T01:09:07;11.85;;;3.40;;
59756;SDS011;45631;51.962;5.974;2023-04-25T01:11:35;14.07;;;3.42;;
59756;SDS011;45631;51.962;5.974;2023-04-25T01:14:03;13.20;;;3.75;;
59756;SDS011;45631;51.962;5.974;2023-04-25T01:16:33;13.25;;;3.80;;
59756;SDS011;45631;51.962;5.974;2023-04-25T01:19:03;12.55;;;3.35;;
59756;SDS011;45631;51.962;5.974;2023-04-25T01:21:38;18.13;;;3.20;;
59756;SDS011;45631;51.962;5.974;2023-04-25T01:24:07;12.52;;;3.42;;
59756;SDS011;45631;51.962;5.974;2023-04-25T01:26:35;11.68;;;3.33;;
59756;SDS011;45631;51.962;5.974;2023-04-25T01:29:03;12.80;;;3.80;;
59756;SDS011;45631;51.962;5.974;2023-04-25T01:31:34;16.60;;;3.83;;
59756;SDS011;45631;51.962;5.974;2023-04-25T01:34:03;10.13;;;3.22;;
59756;SDS011;45631;51.962;5.974;2023-04-25T01:36:31;15.88;;;3.83;;
59756;SDS011;45631;51.962;5.974;2023-04-25T01:39:04;13.45;;;4.07;;
59756;SDS011;45631;51.962;5.974;2023-04-25T01:41:32;15.60;;;4.60;;
59756;SDS011;45631;51.962;5.974;2023-04-25T01:44:01;14.15;;;3.80;;
59756;SDS011;45631;51.962;5.974;2023-04-25T01:46:30;17.83;;;4.18;;
59756;SDS011;45631;51.962;5.974;2023-04-25T01:48:58;16.33;;;4.35;;
59756;SDS011;45631;51.962;5.974;2023-04-25T01:51:27;14.85;;;4.03;;
59756;SDS011;45631;51.962;5.974;2023-04-25T01:53:56;18.50;;;3.92;;
59756;SDS011;45631;51.962;5.974;2023-04-25T01:56:30;14.73;;;4.22;;
59756;SDS011;45631;51.962;5.974;2023-04-25T01:58:59;16.05;;;4.10;;
59756;SDS011;45631;51.962;5.974;2023-04-25T02:01:27;16.73;;;4.40;;
59756;SDS011;45631;51.962;5.974;2023-04-25T02:03:55;14.70;;;4.15;;
59756;SDS011;45631;51.962;5.974;2023-04-25T02:06:24;15.77;;;3.80;;
59756;SDS011;45631;51.962;5.974;2023-04-25T02:08:52;13.85;;;3.72;;
59756;SDS011;45631;51.962;5.974;2023-04-25T02:11:23;14.00;;;3.85;;
59756;SDS011;45631;51.962;5.974;2023-04-25T02:13:52;19.23;;;3.95;;
59756;SDS011;45631;51.962;5.974;2023-04-25T02:16:20;13.85;;;3.65;;
59756;SDS011;45631;51.962;5.974;2023-04-25T02:18:51;13.85;;;4.90;;
59756;SDS011;45631;51.962;5.974;2023-04-25T02:21:20;17.10;;;3.70;;
59756;SDS011;45631;51.962;5.974;2023-04-25T02:23:48;18.48;;;3.97;;
59756;SDS011;45631;51.962;5.974;2023-04-25T02:26:18;12.27;;;3.83;;
59756;SDS011;45631;51.962;5.974;2023-04-25T02:28:47;15.40;;;3.90;;
59756;SDS011;45631;51.962;5.974;2023-04-25T02:31:17;15.80;;;4.53;;
59756;SDS011;45631;51.962;5.974;2023-04-25T02:33:45;15.27;;;4.38;;
59756;SDS011;45631;51.962;5.974;2023-04-25T02:36:14;15.02;;;4.57;;
59756;SDS011;45631;51.962;5.974;2023-04-25T02:38:42;18.55;;;4.10;;
59756;SDS011;45631;51.962;5.974;2023-04-25T02:41:13;17.67;;;3.90;;
59756;SDS011;45631;51.962;5.974;2023-04-25T02:43:41;16.98;;;4.50;;
59756;SDS011;45631;51.962;5.974;2023-04-25T02:46:09;16.67;;;3.83;;
59756;SDS011;45631;51.962;5.974;2023-04-25T02:48:39;14.75;;;3.88;;
59756;SDS011;45631;51.962;5.974;2023-04-25T02:51:07;21.20;;;4.95;;
59756;SDS011;45631;51.962;5.974;2023-04-25T02:53:35;15.43;;;3.80;;
59756;SDS011;45631;51.962;5.974;2023-04-25T02:56:03;15.63;;;3.65;;
59756;SDS011;45631;51.962;5.974;2023-04-25T02:58:32;12.82;;;4.05;;
59756;SDS011;45631;51.962;5.974;2023-04-25T03:01:00;15.20;;;3.95;;
59756;SDS011;45631;51.962;5.974;2023-04-25T03:03:28;12.18;;;3.55;;
59756;SDS011;45631;51.962;5.974;2023-04-25T03:06:01;17.77;;;3.78;;
59756;SDS011;45631;51.962;5.974;2023-04-25T03:08:29;15.30;;;3.45;;
59756;SDS011;45631;51.962;5.974;2023-04-25T03:10:59;14.85;;;3.53;;
59756;SDS011;45631;51.962;5.974;2023-04-25T03:13:27;11.57;;;3.25;;
59756;SDS011;45631;51.962;5.974;2023-04-25T03:15:56;14.27;;;3.70;;
59756;SDS011;45631;51.962;5.974;2023-04-25T03:18:24;20.00;;;3.78;;
59756;SDS011;45631;51.962;5.974;2023-04-25T03:20:52;13.00;;;3.53;;
59756;SDS011;45631;51.962;5.974;2023-04-25T03:23:21;12.55;;;3.10;;
59756;SDS011;45631;51.962;5.974;2023-04-25T03:25:50;16.27;;;4.15;;
59756;SDS011;45631;51.962;5.974;2023-04-25T03:28:20;13.65;;;3.85;;
59756;SDS011;45631;51.962;5.974;2023-04-25T03:30:48;11.77;;;3.08;;
59756;SDS011;45631;51.962;5.974;2023-04-25T03:33:19;15.98;;;3.55;;
59756;SDS011;45631;51.962;5.974;2023-04-25T03:35:47;15.25;;;3.33;;
59756;SDS011;45631;51.962;5.974;2023-04-25T03:38:16;9.55;;;3.13;;
59756;SDS011;45631;51.962;5.974;2023-04-25T03:40:46;19.60;;;3.50;;
59756;SDS011;45631;51.962;5.974;2023-04-25T03:43:14;14.95;;;3.92;;
59756;SDS011;45631;51.962;5.974;2023-04-25T03:45:42;9.10;;;3.15;;
59756;SDS011;45631;51.962;5.974;2023-04-25T03:48:11;12.63;;;3.13;;
59756;SDS011;45631;51.962;5.974;2023-04-25T03:50:42;15.25;;;3.97;;
59756;SDS011;45631;51.962;5.974;2023-04-25T03:53:10;12.88;;;3.40;;
59756;SDS011;45631;51.962;5.974;2023-04-25T03:55:38;11.38;;;3.25;;
59756;SDS011;45631;51.962;5.974;2023-04-25T03:58:10;13.38;;;3.65;;
59756;SDS011;45631;51.962;5.974;2023-04-25T04:00:38;18.23;;;3.75;;
59756;SDS011;45631;51.962;5.974;2023-04-25T04:03:06;12.73;;;3.67;;
59756;SDS011;45631;51.962;5.974;2023-04-25T04:05:34;12.25;;;3.65;;
59756;SDS011;45631;51.962;5.974;2023-04-25T04:08:03;15.85;;;4.28;;
59756;SDS011;45631;51.962;5.974;2023-04-25T04:10:35;14.82;;;3.50;;
59756;SDS011;45631;51.962;5.974;2023-04-25T04:13:03;22.15;;;4.50;;
59756;SDS011;45631;51.962;5.974;2023-04-25T04:15:32;14.70;;;3.53;;
59756;SDS011;45631;51.962;5.974;2023-04-25T04:18:00;17.48;;;3.78;;
59756;SDS011;45631;51.962;5.974;2023-04-25T04:20:31;10.35;;;3.53;;
59756;SDS011;45631;51.962;5.974;2023-04-25T04:22:59;15.65;;;3.47;;
59756;SDS011;45631;51.962;5.974;2023-04-25T04:25:30;14.52;;;3.63;;
59756;SDS011;45631;51.962;5.974;2023-04-25T04:27:58;11.63;;;3.83;;
59756;SDS011;45631;51.962;5.974;2023-04-25T04:30:27;11.68;;;3.20;;
59756;SDS011;45631;51.962;5.974;2023-04-25T04:32:57;15.10;;;3.80;;
59756;SDS011;45631;51.962;5.974;2023-04-25T04:35:25;10.30;;;3.22;;
59756;SDS011;45631;51.962;5.974;2023-04-25T04:37:53;10.38;;;3.50;;
59756;SDS011;45631;51.962;5.974;2023-04-25T04:40:22;11.98;;;3.15;;
59756;SDS011;45631;51.962;5.974;2023-04-25T04:42:51;14.40;;;3.65;;
59756;SDS011;45631;51.962;5.974;2023-04-25T04:45:25;12.90;;;3.65;;
59756;SDS011;45631;51.962;5.974;2023-04-25T04:47:54;13.80;;;3.40;;
59756;SDS011;45631;51.962;5.974;2023-04-25T04:50:24;16.85;;;3.40;;
59756;SDS011;45631;51.962;5.974;2023-04-25T04:52:53;13.18;;;3.95;;
59756;SDS011;45631;51.962;5.974;2023-04-25T04:55:22;15.82;;;4.55;;
59756;SDS011;45631;51.962;5.974;2023-04-25T04:57:50;13.68;;;4.78;;
59756;SDS011;45631;51.962;5.974;2023-04-25T05:00:18;15.75;;;4.85;;
59756;SDS011;45631;51.962;5.974;2023-04-25T05:02:50;18.33;;;4.85;;
59756;SDS011;45631;51.962;5.974;2023-04-25T05:05:18;15.63;;;5.07;;
59756;SDS011;45631;51.962;5.974;2023-04-25T05:07:48;15.10;;;4.88;;
59756;SDS011;45631;51.962;5.974;2023-04-25T05:10:16;16.20;;;4.75;;
59756;SDS011;45631;51.962;5.974;2023-04-25T05:12:44;15.40;;;4.40;;
59756;SDS011;45631;51.962;5.974;2023-04-25T05:15:13;10.68;;;4.30;;
59756;SDS011;45631;51.962;5.974;2023-04-25T05:17:41;17.92;;;4.18;;
59756;SDS011;45631;51.962;5.974;2023-04-25T05:20:09;16.80;;;5.13;;
59756;SDS011;45631;51.962;5.974;2023-04-25T05:22:38;16.88;;;5.25;;
59756;SDS011;45631;51.962;5.974;2023-04-25T05:25:09;15.13;;;4.55;;
59756;SDS011;45631;51.962;5.974;2023-04-25T05:27:37;15.93;;;4.90;;
59756;SDS011;45631;51.962;5.974;2023-04-25T05:30:06;11.25;;;4.05;;
59756;SDS011;45631;51.962;5.974;2023-04-25T05:32:35;15.15;;;4.10;;
59756;SDS011;45631;51.962;5.974;2023-04-25T05:35:03;14.20;;;4.20;;
59756;SDS011;45631;51.962;5.974;2023-04-25T05:37:33;17.17;;;5.00;;
59756;SDS011;45631;51.962;5.974;2023-04-25T05:40:01;12.20;;;3.90;;
59756;SDS011;45631;51.962;5.974;2023-04-25T05:42:34;17.33;;;4.30;;
59756;SDS011;45631;51.962;5.974;2023-04-25T05:45:05;19.35;;;4.13;;
59756;SDS011;45631;51.962;5.974;2023-04-25T05:47:34;14.63;;;4.00;;
59756;SDS011;45631;51.962;5.974;2023-04-25T05:50:02;18.95;;;4.80;;
59756;SDS011;45631;51.962;5.974;2023-04-25T05:52:31;14.10;;;3.92;;
59756;SDS011;45631;51.962;5.974;2023-04-25T05:54:59;12.68;;;3.88;;
59756;SDS011;45631;51.962;5.974;2023-04-25T05:57:27;16.13;;;4.30;;
59756;SDS011;45631;51.962;5.974;2023-04-25T05:59:56;10.57;;;3.17;;
59756;SDS011;45631;51.962;5.974;2023-04-25T06:02:24;12.48;;;4.60;;
59756;SDS011;45631;51.962;5.974;2023-04-25T06:04:53;12.00;;;3.95;;
59756;SDS011;45631;51.962;5.974;2023-04-25T06:07:21;15.13;;;3.95;;
59756;SDS011;45631;51.962;5.974;2023-04-25T06:09:49;12.02;;;4.00;;
59756;SDS011;45631;51.962;5.974;2023-04-25T06:12:17;13.13;;;3.80;;
59756;SDS011;45631;51.962;5.974;2023-04-25T06:14:48;8.40;;;3.63;;
59756;SDS011;45631;51.962;5.974;2023-04-25T06:17:18;11.88;;;3.42;;
59756;SDS011;45631;51.962;5.974;2023-04-25T06:19:46;17.85;;;3.97;;
59756;SDS011;45631;51.962;5.974;2023-04-25T06:22:14;14.15;;;3.17;;
59756;SDS011;45631;51.962;5.974;2023-04-25T06:24:43;14.15;;;3.40;;
59756;SDS011;45631;51.962;5.974;2023-04-25T06:27:12;9.85;;;2.85;;
59756;SDS011;45631;51.962;5.974;2023-04-25T06:29:42;10.00;;;3.15;;
59756;SDS011;45631;51.962;5.974;2023-04-25T06:32:10;9.82;;;2.90;;
59756;SDS011;45631;51.962;5.974;2023-04-25T06:34:43;10.30;;;2.88;;
59756;SDS011;45631;51.962;5.974;2023-04-25T06:37:14;11.27;;;3.15;;
59756;SDS011;45631;51.962;5.974;2023-04-25T06:39:43;9.45;;;3.30;;
59756;SDS011;45631;51.962;5.974;2023-04-25T06:42:11;12.70;;;3.00;;
59756;SDS011;45631;51.962;5.974;2023-04-25T06:44:39;7.95;;;2.67;;
59756;SDS011;45631;51.962;5.974;2023-04-25T06:47:07;9.75;;;2.72;;
59756;SDS011;45631;51.962;5.974;2023-04-25T06:49:35;11.25;;;2.45;;
59756;SDS011;45631;51.962;5.974;2023-04-25T06:52:05;10.65;;;2.97;;
59756;SDS011;45631;51.962;5.974;2023-04-25T06:54:33;10.82;;;2.80;;
59756;SDS011;45631;51.962;5.974;2023-04-25T06:57:01;10.50;;;3.63;;
59756;SDS011;45631;51.962;5.974;2023-04-25T06:59:29;11.07;;;2.40;;
59756;SDS011;45631;51.962;5.974;2023-04-25T07:01:57;9.20;;;2.78;;
59756;SDS011;45631;51.962;5.974;2023-04-25T07:04:25;8.43;;;2.17;;
59756;SDS011;45631;51.962;5.974;2023-04-25T07:06:54;9.52;;;2.55;;
59756;SDS011;45631;51.962;5.974;2023-04-25T07:09:23;7.40;;;2.47;;
59756;SDS011;45631;51.962;5.974;2023-04-25T07:11:51;11.38;;;2.72;;
59756;SDS011;45631;51.962;5.974;2023-04-25T07:14:19;11.75;;;2.65;;
59756;SDS011;45631;51.962;5.974;2023-04-25T07:16:47;11.77;;;2.83;;
59756;SDS011;45631;51.962;5.974;2023-04-25T07:19:16;10.25;;;3.03;;
59756;SDS011;45631;51.962;5.974;2023-04-25T07:21:47;12.15;;;3.88;;
59756;SDS011;45631;51.962;5.974;2023-04-25T07:24:16;15.70;;;3.00;;
59756;SDS011;45631;51.962;5.974;2023-04-25T07:26:45;10.98;;;2.83;;
59756;SDS011;45631;51.962;5.974;2023-04-25T07:29:13;11.90;;;3.20;;
59756;SDS011;45631;51.962;5.974;2023-04-25T07:31:41;10.60;;;2.35;;
59756;SDS011;45631;51.962;5.974;2023-04-25T07:34:10;10.73;;;2.88;;
59756;SDS011;45631;51.962;5.974;2023-04-25T07:36:38;12.52;;;2.53;;
59756;SDS011;45631;51.962;5.974;2023-04-25T07:39:06;8.65;;;2.40;;
59756;SDS011;45631;51.962;5.974;2023-04-25T07:41:35;10.30;;;2.42;;
59756;SDS011;45631;51.962;5.974;2023-04-25T07:44:04;13.50;;;2.50;;
59756;SDS011;45631;51.962;5.974;2023-04-25T07:46:33;9.73;;;2.40;;
59756;SDS011;45631;51.962;5.974;2023-04-25T07:49:01;8.23;;;2.30;;
59756;SDS011;45631;51.962;5.974;2023-04-25T07:51:29;12.25;;;2.33;;
59756;SDS011;45631;51.962;5.974;2023-04-25T07:53:57;8.77;;;2.42;;
59756;SDS011;45631;51.962;5.974;2023-04-25T07:56:26;8.60;;;2.20;;
59756;SDS011;45631;51.962;5.974;2023-04-25T07:59:05;7.25;;;2.30;;
59756;SDS011;45631;51.962;5.974;2023-04-25T08:01:33;7.50;;;2.00;;
59756;SDS011;45631;51.962;5.974;2023-04-25T08:04:02;10.02;;;2.00;;
59756;SDS011;45631;51.962;5.974;2023-04-25T08:06:30;12.43;;;2.13;;
59756;SDS011;45631;51.962;5.974;2023-04-25T08:08:59;9.07;;;2.13;;
59756;SDS011;45631;51.962;5.974;2023-04-25T08:11:27;9.52;;;2.72;;
59756;SDS011;45631;51.962;5.974;2023-04-25T08:13:56;11.40;;;2.22;;
59756;SDS011;45631;51.962;5.974;2023-04-25T08:16:25;11.90;;;2.05;;
59756;SDS011;45631;51.962;5.974;2023-04-25T08:18:53;6.35;;;1.50;;
59756;SDS011;45631;51.962;5.974;2023-04-25T08:21:21;10.65;;;1.80;;
59756;SDS011;45631;51.962;5.974;2023-04-25T08:23:49;9.57;;;1.85;;
59756;SDS011;45631;51.962;5.974;2023-04-25T08:26:17;7.57;;;1.40;;
59756;SDS011;45631;51.962;5.974;2023-04-25T08:28:46;7.35;;;1.48;;
59756;SDS011;45631;51.962;5.974;2023-04-25T08:31:14;5.95;;;1.42;;
59756;SDS011;45631;51.962;5.974;2023-04-25T08:33:44;7.00;;;1.30;;
59756;SDS011;45631;51.962;5.974;2023-04-25T08:36:12;7.82;;;1.13;;
59756;SDS011;45631;51.962;5.974;2023-04-25T08:38:56;7.65;;;1.17;;
59756;SDS011;45631;51.962;5.974;2023-04-25T08:41:28;8.32;;;1.23;;
59756;SDS011;45631;51.962;5.974;2023-04-25T08:43:56;10.45;;;1.50;;
59756;SDS011;45631;51.962;5.974;2023-04-25T08:46:26;10.45;;;1.67;;
59756;SDS011;45631;51.962;5.974;2023-04-25T08:49:00;4.25;;;1.20;;
59756;SDS011;45631;51.962;5.974;2023-04-25T08:51:30;4.70;;;1.20;;
59756;SDS011;45631;51.962;5.974;2023-04-25T08:54:01;10.27;;;1.50;;
59756;SDS011;45631;51.962;5.974;2023-04-25T08:56:57;8.73;;;1.38;;
59756;SDS011;45631;51.962;5.974;2023-04-25T08:59:28;6.07;;;1.30;;
59756;SDS011;45631;51.962;5.974;2023-04-25T09:02:00;7.75;;;1.52;;
59756;SDS011;45631;51.962;5.974;2023-04-25T09:04:32;7.22;;;1.48;;
59756;SDS011;45631;51.962;5.974;2023-04-25T09:07:01;6.57;;;1.30;;
59756;SDS011;45631;51.962;5.974;2023-04-25T09:09:29;5.40;;;1.40;;
59756;SDS011;45631;51.962;5.974;2023-04-25T09:11:57;8.65;;;1.13;;
59756;SDS011;45631;51.962;5.974;2023-04-25T09:14:28;9.27;;;1.42;;
59756;SDS011;45631;51.962;5.974;2023-04-25T09:17:00;6.78;;;1.70;;
59756;SDS011;45631;51.962;5.974;2023-04-25T09:19:30;5.95;;;1.10;;
59756;SDS011;45631;51.962;5.974;2023-04-25T09:22:04;6.25;;;1.33;;
59756;SDS011;45631;51.962;5.974;2023-04-25T09:24:36;6.97;;;1.33;;
59756;SDS011;45631;51.962;5.974;2023-04-25T09:29:36;5.47;;;1.25;;
59756;SDS011;45631;51.962;5.974;2023-04-25T09:32:14;6.07;;;1.10;;
59756;SDS011;45631;51.962;5.974;2023-04-25T09:34:46;8.48;;;1.33;;
59756;SDS011;45631;51.962;5.974;2023-04-25T09:37:20;6.93;;;1.23;;
59756;SDS011;45631;51.962;5.974;2023-04-25T09:39:50;6.57;;;1.17;;
59756;SDS011;45631;51.962;5.974;2023-04-25T09:42:21;9.18;;;1.60;;
59756;SDS011;45631;51.962;5.974;2023-04-25T09:44:51;5.45;;;1.02;;
59756;SDS011;45631;51.962;5.974;2023-04-25T09:47:24;9.35;;;1.38;;
59756;SDS011;45631;51.962;5.974;2023-04-25T09:49:57;7.25;;;1.42;;
59756;SDS011;45631;51.962;5.974;2023-04-25T09:52:27;6.03;;;1.10;;
59756;SDS011;45631;51.962;5.974;2023-04-25T09:54:55;6.03;;;1.13;;
59756;SDS011;45631;51.962;5.974;2023-04-25T09:57:23;8.30;;;1.60;;
59756;SDS011;45631;51.962;5.974;2023-04-25T09:59:53;7.32;;;1.42;;
59756;SDS011;45631;51.962;5.974;2023-04-25T10:02:22;8.35;;;1.42;;
59756;SDS011;45631;51.962;5.974;2023-04-25T10:04:54;6.85;;;1.10;;
59756;SDS011;45631;51.962;5.974;2023-04-25T10:07:23;6.30;;;1.17;;
59756;SDS011;45631;51.962;5.974;2023-04-25T10:09:58;7.60;;;1.20;;
59756;SDS011;45631;51.962;5.974;2023-04-25T10:12:28;5.45;;;1.05;;
59756;SDS011;45631;51.962;5.974;2023-04-25T10:14:57;6.03;;;1.25;;
59756;SDS011;45631;51.962;5.974;2023-04-25T10:17:26;4.57;;;1.10;;
59756;SDS011;45631;51.962;5.974;2023-04-25T10:19:54;4.55;;;1.25;;
59756;SDS011;45631;51.962;5.974;2023-04-25T10:22:24;5.15;;;1.00;;
59756;SDS011;45631;51.962;5.974;2023-04-25T10:24:58;5.00;;;1.08;;
59756;SDS011;45631;51.962;5.974;2023-04-25T10:27:30;6.90;;;1.20;;
59756;SDS011;45631;51.962;5.974;2023-04-25T10:30:03;7.00;;;1.20;;
59756;SDS011;45631;51.962;5.974;2023-04-25T10:32:33;10.18;;;1.38;;
59756;SDS011;45631;51.962;5.974;2023-04-25T10:35:10;7.18;;;1.55;;
59756;SDS011;45631;51.962;5.974;2023-04-25T10:37:58;6.93;;;1.27;;
59756;SDS011;45631;51.962;5.974;2023-04-25T10:40:29;7.38;;;1.25;;
59756;SDS011;45631;51.962;5.974;2023-04-25T10:45:59;6.68;;;1.30;;
59756;SDS011;45631;51.962;5.974;2023-04-25T10:48:28;10.35;;;1.90;;
59756;SDS011;45631;51.962;5.974;2023-04-25T10:51:09;7.22;;;1.30;;
59756;SDS011;45631;51.962;5.974;2023-04-25T10:53:37;7.13;;;1.10;;
59756;SDS011;45631;51.962;5.974;2023-04-25T10:56:12;6.32;;;1.45;;
59756;SDS011;45631;51.962;5.974;2023-04-25T10:58:44;6.22;;;1.30;;
59756;SDS011;45631;51.962;5.974;2023-04-25T11:01:19;6.97;;;1.30;;
59756;SDS011;45631;51.962;5.974;2023-04-25T11:03:48;7.00;;;1.50;;
59756;SDS011;45631;51.962;5.974;2023-04-25T11:06:26;8.80;;;1.45;;
59756;SDS011;45631;51.962;5.974;2023-04-25T11:09:00;6.60;;;1.38;;
59756;SDS011;45631;51.962;5.974;2023-04-25T11:11:30;6.35;;;1.40;;
59756;SDS011;45631;51.962;5.974;2023-04-25T11:13:59;6.63;;;1.20;;
59756;SDS011;45631;51.962;5.974;2023-04-25T11:16:29;7.05;;;1.20;;
59756;SDS011;45631;51.962;5.974;2023-04-25T11:18:58;4.45;;;1.10;;
59756;SDS011;45631;51.962;5.974;2023-04-25T11:21:26;5.97;;;1.27;;
59756;SDS011;45631;51.962;5.974;2023-04-25T11:23:58;7.22;;;1.00;;
59756;SDS011;45631;51.962;5.974;2023-04-25T11:26:27;8.50;;;1.30;;
59756;SDS011;45631;51.962;5.974;2023-04-25T11:28:59;6.22;;;1.20;;
59756;SDS011;45631;51.962;5.974;2023-04-25T11:31:28;7.45;;;1.38;;
59756;SDS011;45631;51.962;5.974;2023-04-25T11:33:57;6.60;;;1.30;;
59756;SDS011;45631;51.962;5.974;2023-04-25T11:36:25;5.85;;;1.10;;
59756;SDS011;45631;51.962;5.974;2023-04-25T11:38:54;6.03;;;1.30;;
59756;SDS011;45631;51.962;5.974;2023-04-25T11:41:22;3.78;;;1.05;;
59756;SDS011;45631;51.962;5.974;2023-04-25T11:43:50;4.53;;;1.20;;
59756;SDS011;45631;51.962;5.974;2023-04-25T11:46:22;5.22;;;1.35;;
59756;SDS011;45631;51.962;5.974;2023-04-25T11:48:50;4.90;;;1.10;;
59756;SDS011;45631;51.962;5.974;2023-04-25T11:51:19;4.97;;;0.98;;
59756;SDS011;45631;51.962;5.974;2023-04-25T11:53:47;5.93;;;1.10;;
59756;SDS011;45631;51.962;5.974;2023-04-25T11:56:15;3.55;;;1.02;;
59756;SDS011;45631;51.962;5.974;2023-04-25T11:58:56;4.10;;;1.02;;
59756;SDS011;45631;51.962;5.974;2023-04-25T12:01:27;5.65;;;1.00;;
59756;SDS011;45631;51.962;5.974;2023-04-25T12:04:10;2.88;;;1.10;;
59756;SDS011;45631;51.962;5.974;2023-04-25T12:06:39;4.05;;;0.93;;
59756;SDS011;45631;51.962;5.974;2023-04-25T12:09:09;3.78;;;0.98;;
59756;SDS011;45631;51.962;5.974;2023-04-25T12:11:40;5.53;;;0.80;;
59756;SDS011;45631;51.962;5.974;2023-04-25T12:14:09;3.45;;;1.00;;
59756;SDS011;45631;51.962;5.974;2023-04-25T12:16:43;5.07;;;1.20;;
59756;SDS011;45631;51.962;5.974;2023-04-25T12:19:13;5.13;;;1.10;;
59756;SDS011;45631;51.962;5.974;2023-04-25T12:21:42;4.07;;;1.10;;
59756;SDS011;45631;51.962;5.974;2023-04-25T12:24:24;5.63;;;1.38;;
59756;SDS011;45631;51.962;5.974;2023-04-25T12:26:58;4.40;;;1.23;;
59756;SDS011;45631;51.962;5.974;2023-04-25T12:29:31;4.90;;;1.10;;
59756;SDS011;45631;51.962;5.974;2023-04-25T12:32:16;5.93;;;1.35;;
59756;SDS011;45631;51.962;5.974;2023-04-25T12:34:45;5.22;;;1.00;;
59756;SDS011;45631;51.962;5.974;2023-04-25T12:37:13;4.35;;;1.40;;
59756;SDS011;45631;51.962;5.974;2023-04-25T12:39:42;8.48;;;1.40;;
59756;SDS011;45631;51.962;5.974;2023-04-25T12:42:10;6.45;;;1.10;;
59756;SDS011;45631;51.962;5.974;2023-04-25T12:44:39;4.22;;;1.20;;
59756;SDS011;45631;51.962;5.974;2023-04-25T12:47:11;6.10;;;1.38;;
59756;SDS011;45631;51.962;5.974;2023-04-25T12:49:40;4.80;;;1.48;;
59756;SDS011;45631;51.962;5.974;2023-04-25T12:52:08;5.85;;;1.20;;
59756;SDS011;45631;51.962;5.974;2023-04-25T12:54:36;4.95;;;1.20;;
59756;SDS011;45631;51.962;5.974;2023-04-25T12:57:05;9.98;;;1.55;;
59756;SDS011;45631;51.962;5.974;2023-04-25T12:59:33;5.20;;;1.30;;
59756;SDS011;45631;51.962;5.974;2023-04-25T13:02:04;5.00;;;1.27;;
59756;SDS011;45631;51.962;5.974;2023-04-25T13:04:32;7.35;;;1.50;;
59756;SDS011;45631;51.962;5.974;2023-04-25T13:07:02;5.07;;;1.10;;
59756;SDS011;45631;51.962;5.974;2023-04-25T13:09:30;5.05;;;1.25;;
59756;SDS011;45631;51.962;5.974;2023-04-25T13:11:58;7.70;;;1.25;;
59756;SDS011;45631;51.962;5.974;2023-04-25T13:14:26;6.10;;;1.50;;
59756;SDS011;45631;51.962;5.974;2023-04-25T13:16:54;8.05;;;1.70;;
59756;SDS011;45631;51.962;5.974;2023-04-25T13:19:22;7.13;;;1.25;;
59756;SDS011;45631;51.962;5.974;2023-04-25T13:21:51;5.20;;;1.10;;
59756;SDS011;45631;51.962;5.974;2023-04-25T13:24:21;5.72;;;1.35;;
59756;SDS011;45631;51.962;5.974;2023-04-25T13:26:52;7.68;;;1.20;;
59756;SDS011;45631;51.962;5.974;2023-04-25T13:29:20;7.68;;;1.50;;
59756;SDS011;45631;51.962;5.974;2023-04-25T13:31:48;5.40;;;1.23;;
59756;SDS011;45631;51.962;5.974;2023-04-25T13:34:16;5.43;;;1.20;;
59756;SDS011;45631;51.962;5.974;2023-04-25T13:36:44;8.30;;;1.27;;
59756;SDS011;45631;51.962;5.974;2023-04-25T13:39:13;5.97;;;1.13;;
59756;SDS011;45631;51.962;5.974;2023-04-25T13:41:42;5.57;;;1.13;;
59756;SDS011;45631;51.962;5.974;2023-04-25T13:44:10;3.40;;;0.90;;
59756;SDS011;45631;51.962;5.974;2023-04-25T13:46:39;3.20;;;0.95;;
59756;SDS011;45631;51.962;5.974;2023-04-25T13:49:13;4.55;;;1.02;;
59756;SDS011;45631;51.962;5.974;2023-04-25T13:51:41;7.68;;;1.30;;
59756;SDS011;45631;51.962;5.974;2023-04-25T13:54:10;9.38;;;1.42;;
59756;SDS011;45631;51.962;5.974;2023-04-25T13:56:39;5.60;;;1.20;;
59756;SDS011;45631;51.962;5.974;2023-04-25T13:59:10;5.10;;;1.25;;
59756;SDS011;45631;51.962;5.974;2023-04-25T14:01:38;4.22;;;1.15;;
59756;SDS011;45631;51.962;5.974;2023-04-25T14:04:06;4.13;;;1.13;;
59756;SDS011;45631;51.962;5.974;2023-04-25T14:06:34;3.28;;;0.93;;
59756;SDS011;45631;51.962;5.974;2023-04-25T14:09:03;4.70;;;1.10;;
59756;SDS011;45631;51.962;5.974;2023-04-25T14:11:35;4.32;;;0.93;;
59756;SDS011;45631;51.962;5.974;2023-04-25T14:14:03;7.03;;;1.10;;
59756;SDS011;45631;51.962;5.974;2023-04-25T14:16:33;5.68;;;1.08;;
59756;SDS011;45631;51.962;5.974;2023-04-25T14:19:03;3.03;;;0.90;;
59756;SDS011;45631;51.962;5.974;2023-04-25T14:21:32;4.00;;;0.90;;
59756;SDS011;45631;51.962;5.974;2023-04-25T14:24:00;3.55;;;0.93;;
59756;SDS011;45631;51.962;5.974;2023-04-25T14:26:28;5.00;;;1.05;;
59756;SDS011;45631;51.962;5.974;2023-04-25T14:28:56;5.85;;;1.25;;
59756;SDS011;45631;51.962;5.974;2023-04-25T14:31:24;5.43;;;1.13;;
59756;SDS011;45631;51.962;5.974;2023-04-25T14:33:57;7.45;;;1.55;;
59756;SDS011;45631;51.962;5.974;2023-04-25T14:36:25;6.90;;;1.30;;
59756;SDS011;45631;51.962;5.974;2023-04-25T14:38:54;4.10;;;1.02;;
59756;SDS011;45631;51.962;5.974;2023-04-25T14:41:22;3.58;;;1.02;;
59756;SDS011;45631;51.962;5.974;2023-04-25T14:43:51;5.22;;;1.23;;
59756;SDS011;45631;51.962;5.974;2023-04-25T14:46:20;4.72;;;0.95;;
59756;SDS011;45631;51.962;5.974;2023-04-25T14:48:49;4.20;;;1.10;;
59756;SDS011;45631;51.962;5.974;2023-04-25T14:51:19;6.88;;;1.20;;
59756;SDS011;45631;51.962;5.974;2023-04-25T14:53:47;4.88;;;1.05;;
59756;SDS011;45631;51.962;5.974;2023-04-25T14:56:17;6.32;;;1.20;;
59756;SDS011;45631;51.962;5.974;2023-04-25T14:58:45;5.78;;;1.15;;
59756;SDS011;45631;51.962;5.974;2023-04-25T15:01:13;4.38;;;1.10;;